Time;durP1;ratioP1;P1;durP2;ratioP2;P2;SDS_P1;SDS_P2;PMS_P1;PMS_P2;Temp;Humidity;BMP_temperature;BMP_pressure;BME280_temperature;BME280_humidity;BME280_pressure;Samples;Min_cycle;Max_cycle;Signal;HPM_P1;HPM_P2
2022/08/05 00:00:35;;;;;;;4.87;4.57;;;27.60;1.00;;;;;;5090189;28;20191;-64
2022/08/05 00:03:01;;;;;;;6.33;5.83;;;27.60;1.00;;;;;;5087282;28;20224;-67
2022/08/05 00:05:27;;;;;;;5.23;4.70;;;27.60;1.00;;;;;;5088958;28;20203;-66
2022/08/05 00:07:52;;;;;;;5.73;5.23;;;27.50;1.00;;;;;;5089024;28;20281;-65
2022/08/05 00:10:18;;;;;;;6.10;5.50;;;27.50;1.00;;;;;;5089142;28;20198;-66
2022/08/05 00:12:44;;;;;;;5.90;5.40;;;27.50;1.00;;;;;;5089015;28;20187;-67
2022/08/05 00:15:09;;;;;;;6.20;5.60;;;27.40;1.00;;;;;;5087753;28;20183;-66
2022/08/05 00:17:35;;;;;;;6.30;5.70;;;27.40;1.00;;;;;;5090078;28;20184;-62
2022/08/05 00:20:00;;;;;;;5.27;4.77;;;27.40;1.00;;;;;;5088128;28;21062;-65
2022/08/05 00:22:26;;;;;;;5.40;5.00;;;27.40;1.00;;;;;;5087461;28;20185;-67
2022/08/05 00:24:52;;;;;;;6.33;5.83;;;27.40;1.00;;;;;;5090007;28;20178;-66
2022/08/05 00:27:17;;;;;;;5.90;5.40;;;27.30;1.00;;;;;;5088266;28;20257;-65
2022/08/05 00:29:43;;;;;;;6.47;5.87;;;27.30;1.00;;;;;;5087555;28;20191;-66
2022/08/05 00:32:11;;;;;;;6.50;5.37;;;27.30;1.00;;;;;;5087979;28;20192;-65
2022/08/05 00:34:38;;;;;;;5.63;5.13;;;27.30;1.00;;;;;;5088643;28;21089;-66
2022/08/05 00:37:04;;;;;;;6.33;5.77;;;27.20;1.00;;;;;;5085535;28;21142;-70
2022/08/05 00:39:30;;;;;;;5.97;5.47;;;27.20;1.00;;;;;;5088236;28;20557;-66
2022/08/05 00:41:55;;;;;;;5.50;5.10;;;27.20;1.00;;;;;;5089533;28;20188;-67
2022/08/05 00:44:22;;;;;;;5.23;4.83;;;27.30;1.00;;;;;;5089110;28;20191;-67
2022/08/05 00:46:48;;;;;;;4.73;4.43;;;27.20;1.00;;;;;;5087725;28;20289;-67
2022/08/05 00:49:17;;;;;;;6.07;5.57;;;27.20;1.00;;;;;;5090849;28;20783;-69
2022/08/05 00:51:43;;;;;;;7.47;4.70;;;27.20;1.00;;;;;;5093137;28;20210;-66
2022/08/05 00:54:11;;;;;;;5.37;4.97;;;27.20;1.00;;;;;;5093363;28;20509;-66
2022/08/05 00:56:36;;;;;;;5.20;4.90;;;27.20;1.00;;;;;;5092756;28;20186;-66
2022/08/05 00:59:02;;;;;;;7.07;5.27;;;27.20;1.00;;;;;;5092304;28;20505;-67
2022/08/05 01:01:28;;;;;;;5.70;5.20;;;27.20;1.00;;;;;;5093983;28;20232;-66
2022/08/05 01:03:53;;;;;;;6.13;4.90;;;27.10;1.00;;;;;;5091794;28;20805;-66
2022/08/05 01:06:19;;;;;;;5.30;4.90;;;27.10;1.00;;;;;;5091861;28;20237;-65
2022/08/05 01:08:45;;;;;;;5.80;5.40;;;27.00;1.00;;;;;;5091976;28;20217;-66
2022/08/05 01:11:21;;;;;;;5.20;4.80;;;27.00;1.00;;;;;;5093266;28;20201;-67
2022/08/05 01:14:02;;;;;;;5.20;4.80;;;27.00;1.00;;;;;;5092865;28;20189;-68
2022/08/05 01:17:06;;;;;;;4.90;4.50;;;27.00;1.00;;;;;;5092231;28;20452;-67
2022/08/05 01:19:54;;;;;;;5.57;5.17;;;26.90;1.00;;;;;;5063144;28;20599;-66
2022/08/05 01:22:53;;;;;;;5.87;5.40;;;26.90;1.00;;;;;;5092438;28;20463;-66
2022/08/05 01:25:33;;;;;;;6.03;5.43;;;26.90;1.00;;;;;;5091034;28;20433;-66
2022/08/05 01:28:16;;;;;;;6.03;5.60;;;26.90;1.00;;;;;;5091349;28;20440;-65
2022/08/05 01:31:11;;;;;;;5.47;5.10;;;26.90;1.00;;;;;;5093635;28;20429;-61
2022/08/05 01:34:06;;;;;;;5.60;5.17;;;26.80;1.00;;;;;;5090079;28;20440;-61
2022/08/05 01:36:37;;;;;;;6.30;5.90;;;26.80;1.00;;;;;;5083700;28;20476;-61
2022/08/05 01:39:03;;;;;;;5.90;5.40;;;26.90;1.00;;;;;;5089960;28;20436;-61
2022/08/05 01:41:33;;;;;;;5.60;5.20;;;26.90;1.00;;;;;;5092865;28;20430;-61
2022/08/05 01:44:00;;;;;;;5.80;5.37;;;26.80;1.00;;;;;;5092195;28;20187;-62
2022/08/05 01:46:29;;;;;;;6.07;5.57;;;26.80;1.00;;;;;;5089502;28;20464;-61
2022/08/05 01:48:57;;;;;;;5.80;5.40;;;26.70;1.00;;;;;;5091794;28;20471;-61
2022/08/05 01:51:24;;;;;;;5.73;5.20;;;26.70;1.00;;;;;;5091329;28;20513;-61
2022/08/05 01:53:51;;;;;;;6.50;5.70;;;26.70;1.00;;;;;;5091307;28;20457;-61
2022/08/05 01:56:20;;;;;;;6.20;5.60;;;26.70;1.00;;;;;;5092011;28;20459;-61
2022/08/05 01:58:50;;;;;;;5.77;5.27;;;26.70;1.00;;;;;;5091193;28;20502;-60
2022/08/05 02:01:18;;;;;;;6.20;5.60;;;26.70;1.00;;;;;;5090712;28;20464;-61
2022/08/05 02:03:46;;;;;;;5.70;5.30;;;26.60;1.00;;;;;;5087361;28;20446;-61
2022/08/05 02:06:12;;;;;;;6.03;5.40;;;26.60;1.00;;;;;;5088880;28;20503;-61
2022/08/05 02:08:38;;;;;;;6.07;5.47;;;26.50;1.00;;;;;;5090543;28;20469;-60
2022/08/05 02:11:09;;;;;;;6.70;5.77;;;26.50;1.00;;;;;;5089324;28;20889;-61
2022/08/05 02:13:44;;;;;;;8.20;6.10;;;26.40;1.00;;;;;;5090159;28;20445;-61
2022/08/05 02:16:25;;;;;;;6.53;5.93;;;26.40;1.00;;;;;;5089652;28;20452;-60
2022/08/05 02:19:01;;;;;;;6.17;5.63;;;26.40;1.00;;;;;;5089091;28;20937;-62
2022/08/05 02:21:30;;;;;;;5.93;5.33;;;26.40;1.00;;;;;;5087269;28;20527;-60
2022/08/05 02:24:04;;;;;;;8.23;5.90;;;26.40;1.00;;;;;;5090660;28;20526;-61
2022/08/05 02:26:40;;;;;;;10.53;5.93;;;26.30;1.00;;;;;;5088934;28;20522;-60
2022/08/05 02:29:08;;;;;;;6.47;5.77;;;26.20;1.00;;;;;;5089411;28;20801;-61
2022/08/05 02:31:35;;;;;;;6.10;5.60;;;26.20;1.00;;;;;;5090247;28;20440;-61
2022/08/05 02:34:10;;;;;;;5.60;5.20;;;26.10;1.00;;;;;;5088920;28;20448;-62
2022/08/05 02:36:41;;;;;;;6.60;5.87;;;26.10;1.00;;;;;;5086360;28;20484;-61
2022/08/05 02:39:08;;;;;;;7.27;6.13;;;26.10;1.00;;;;;;5083509;28;20444;-61
2022/08/05 02:41:35;;;;;;;5.87;5.37;;;26.10;1.00;;;;;;5087594;28;20445;-61
2022/08/05 02:44:01;;;;;;;6.83;6.30;;;26.00;1.00;;;;;;5090478;28;20950;-62
2022/08/05 02:46:28;;;;;;;6.63;5.90;;;26.00;1.00;;;;;;5089247;28;20460;-61
2022/08/05 02:48:55;;;;;;;8.10;6.03;;;26.00;1.00;;;;;;5088377;28;20531;-62
2022/08/05 02:51:21;;;;;;;7.00;6.30;;;26.00;1.00;;;;;;5088938;28;20695;-62
2022/08/05 02:53:48;;;;;;;5.97;5.37;;;26.00;1.00;;;;;;5089516;28;20448;-60
2022/08/05 02:56:16;;;;;;;6.23;5.60;;;26.00;1.00;;;;;;5089163;28;20437;-62
2022/08/05 02:58:43;;;;;;;6.23;5.83;;;26.00;1.00;;;;;;5089127;28;20448;-62
2022/08/05 03:01:19;;;;;;;6.40;5.90;;;25.90;1.00;;;;;;5085703;28;20457;-61
2022/08/05 03:03:48;;;;;;;7.43;5.93;;;25.80;1.00;;;;;;5089371;28;21107;-59
2022/08/05 03:06:15;;;;;;;7.60;6.13;;;25.80;1.00;;;;;;5093095;28;20475;-61
2022/08/05 03:08:42;;;;;;;7.03;6.43;;;25.80;1.00;;;;;;5089413;28;21037;-61
2022/08/05 03:11:21;;;;;;;6.87;6.17;;;25.80;1.00;;;;;;5087596;28;20438;-61
2022/08/05 03:13:48;;;;;;;6.30;5.70;;;25.80;1.00;;;;;;5089878;28;20980;-60
2022/08/05 03:16:13;;;;;;;6.93;6.20;;;25.80;1.00;;;;;;5087469;28;20437;-60
2022/08/05 03:18:39;;;;;;;7.83;6.40;;;25.70;1.00;;;;;;5087461;28;20445;-61
2022/08/05 03:21:05;;;;;;;6.67;6.07;;;25.70;1.00;;;;;;5088515;28;20194;-61
2022/08/05 03:23:33;;;;;;;6.50;5.90;;;25.60;1.00;;;;;;5088457;28;20471;-60
2022/08/05 03:25:59;;;;;;;6.37;5.87;;;25.60;1.00;;;;;;5088138;28;20468;-61
2022/08/05 03:28:26;;;;;;;6.90;6.23;;;25.60;1.00;;;;;;5087989;28;20521;-61
2022/08/05 03:30:52;;;;;;;7.50;5.90;;;25.60;1.00;;;;;;5066216;28;20495;-61
2022/08/05 03:33:18;;;;;;;7.23;5.50;;;25.60;1.00;;;;;;5089505;28;20473;-61
2022/08/05 03:35:45;;;;;;;8.23;6.10;;;25.60;1.00;;;;;;5086654;28;21057;-60
2022/08/05 03:38:11;;;;;;;9.57;6.17;;;25.80;1.00;;;;;;5068018;28;20195;-62
2022/08/05 03:40:41;;;;;;;6.40;5.90;;;25.80;1.00;;;;;;5087306;28;20913;-60
2022/08/05 03:43:07;;;;;;;6.00;5.60;;;25.90;1.00;;;;;;5088646;28;20440;-61
2022/08/05 03:45:32;;;;;;;5.80;5.40;;;25.80;1.00;;;;;;5085533;28;20506;-62
2022/08/05 03:47:58;;;;;;;8.23;6.10;;;25.60;1.00;;;;;;5089966;28;20191;-61
2022/08/05 03:50:27;;;;;;;6.20;5.70;;;25.60;1.00;;;;;;5086536;28;20201;-62
2022/08/05 03:53:07;;;;;;;6.47;6.03;;;25.60;1.00;;;;;;5087068;28;20262;-62
2022/08/05 03:55:36;;;;;;;5.83;5.30;;;25.60;1.00;;;;;;5089234;28;20447;-61
2022/08/05 03:58:04;;;;;;;6.50;5.90;;;25.50;1.00;;;;;;5089225;28;20485;-61
2022/08/05 04:00:31;;;;;;;7.33;5.60;;;25.60;1.00;;;;;;5084934;28;20478;-61
2022/08/05 04:03:00;;;;;;;5.83;5.33;;;25.70;1.00;;;;;;5088160;28;20490;-60
2022/08/05 04:05:31;;;;;;;6.50;5.90;;;25.80;1.00;;;;;;5088415;28;20954;-59
2022/08/05 04:08:00;;;;;;;7.20;6.50;;;25.80;1.00;;;;;;5087509;28;20502;-59
2022/08/05 04:10:27;;;;;;;6.60;6.00;;;25.80;1.00;;;;;;5088145;28;20466;-58
2022/08/05 04:12:52;;;;;;;6.43;5.73;;;25.90;1.00;;;;;;5088205;28;20999;-58
2022/08/05 04:15:18;;;;;;;7.73;7.00;;;25.90;1.00;;;;;;5087790;28;20480;-58
2022/08/05 04:17:44;;;;;;;6.57;5.97;;;25.90;1.00;;;;;;5087723;28;20201;-57
2022/08/05 04:20:20;;;;;;;7.20;6.50;;;25.90;1.00;;;;;;5088060;28;20210;-58
2022/08/05 04:22:46;;;;;;;6.27;5.77;;;25.90;1.00;;;;;;5086451;28;20195;-60
2022/08/05 04:25:12;;;;;;;7.77;6.53;;;25.90;1.00;;;;;;5086025;28;20448;-58
2022/08/05 04:27:37;;;;;;;7.10;6.40;;;26.00;1.00;;;;;;5088445;28;20290;-58
2022/08/05 04:30:04;;;;;;;7.53;6.80;;;26.00;1.00;;;;;;5088056;28;20445;-59
2022/08/05 04:32:30;;;;;;;8.57;6.77;;;26.20;1.00;;;;;;5087074;28;20231;-58
2022/08/05 04:34:55;;;;;;;8.40;6.73;;;26.20;1.00;;;;;;5087228;28;20831;-58
2022/08/05 04:37:21;;;;;;;7.93;6.97;;;26.20;1.00;;;;;;5087226;28;20222;-58
2022/08/05 04:39:47;;;;;;;9.07;6.63;;;26.20;1.00;;;;;;5088035;28;20186;-58
2022/08/05 04:42:12;;;;;;;12.53;7.60;;;26.20;1.00;;;;;;5085852;28;20219;-59
2022/08/05 04:44:38;;;;;;;7.47;6.63;;;26.20;1.00;;;;;;5087625;28;20277;-57
2022/08/05 04:47:04;;;;;;;8.03;7.33;;;26.30;1.00;;;;;;5087346;28;20202;-58
2022/08/05 04:49:29;;;;;;;13.40;7.30;;;26.30;1.00;;;;;;5086768;28;20194;-59
2022/08/05 04:51:55;;;;;;;7.67;6.97;;;26.40;1.00;;;;;;5070000;28;20333;-60
2022/08/05 04:54:21;;;;;;;9.10;6.80;;;26.50;1.00;;;;;;5086850;28;20186;-59
2022/08/05 04:56:47;;;;;;;9.57;6.90;;;26.60;1.00;;;;;;5087974;28;20194;-59
2022/08/05 04:59:14;;;;;;;7.40;6.70;;;26.70;1.00;;;;;;5089524;28;20191;-58
2022/08/05 05:01:40;;;;;;;8.90;6.27;;;26.80;1.00;;;;;;5085096;28;20222;-59
2022/08/05 05:04:06;;;;;;;7.70;6.90;;;26.80;1.00;;;;;;5088057;28;20557;-59
2022/08/05 05:06:32;;;;;;;7.30;6.30;;;26.80;1.00;;;;;;5086804;28;20724;-58
2022/08/05 05:08:57;;;;;;;8.20;6.20;;;26.90;1.00;;;;;;5086353;28;20631;-59
2022/08/05 05:11:23;;;;;;;9.47;6.67;;;26.80;1.00;;;;;;5087431;28;20648;-59
2022/08/05 05:13:48;;;;;;;8.07;6.60;;;26.90;1.00;;;;;;5086979;28;20212;-57
2022/08/05 05:16:14;;;;;;;10.73;5.63;;;27.00;1.00;;;;;;5086918;28;20285;-59
2022/08/05 05:18:42;;;;;;;6.73;6.13;;;27.00;1.00;;;;;;5089303;28;20183;-59
2022/08/05 05:21:08;;;;;;;7.57;6.87;;;27.00;1.00;;;;;;5090486;28;20440;-58
2022/08/05 05:23:33;;;;;;;7.90;6.40;;;27.00;1.00;;;;;;5088014;28;20451;-58
2022/08/05 05:25:59;;;;;;;9.23;6.83;;;27.10;1.00;;;;;;5087277;28;20219;-57
2022/08/05 05:28:24;;;;;;;7.67;6.80;;;27.00;1.00;;;;;;5088609;28;20214;-58
2022/08/05 05:30:50;;;;;;;11.00;6.80;;;27.00;1.00;;;;;;5089241;28;20233;-59
2022/08/05 05:33:16;;;;;;;9.67;6.47;;;27.00;1.00;;;;;;5089588;28;20198;-58
2022/08/05 05:35:41;;;;;;;11.50;6.40;;;27.10;1.00;;;;;;5091027;28;20272;-58
2022/08/05 05:38:07;;;;;;;7.40;6.80;;;27.20;1.00;;;;;;5089235;28;20298;-58
2022/08/05 05:40:33;;;;;;;7.13;6.43;;;27.30;1.00;;;;;;5092395;28;20186;-58
2022/08/05 05:42:58;;;;;;;8.60;6.60;;;27.50;1.00;;;;;;5092988;28;20199;-59
2022/08/05 05:45:24;;;;;;;8.33;7.00;;;27.60;1.00;;;;;;5091723;28;20194;-59
2022/08/05 05:47:50;;;;;;;9.27;6.30;;;27.60;1.00;;;;;;5089705;28;20184;-59
2022/08/05 05:50:18;;;;;;;8.30;6.20;;;27.70;1.00;;;;;;5091876;28;20457;-60
2022/08/05 05:52:45;;;;;;;6.77;6.17;;;27.90;1.00;;;;;;5091956;28;20440;-58
2022/08/05 05:55:14;;;;;;;9.00;6.13;;;28.00;1.00;;;;;;5089180;28;20503;-58
2022/08/05 05:57:45;;;;;;;9.73;6.20;;;28.10;1.00;;;;;;5093697;28;20451;-59
2022/08/05 06:00:16;;;;;;;7.40;6.77;;;28.20;1.00;;;;;;5091869;28;20456;-59
2022/08/05 06:02:42;;;;;;;8.93;6.30;;;28.30;1.00;;;;;;5092238;28;20444;-60
2022/08/05 06:05:10;;;;;;;11.40;6.60;;;28.30;1.00;;;;;;5090377;28;20464;-59
2022/08/05 06:07:36;;;;;;;8.97;6.80;;;28.40;1.00;;;;;;5090653;28;20534;-59
2022/08/05 06:10:03;;;;;;;10.50;6.13;;;28.60;1.00;;;;;;5089605;28;20445;-58
2022/08/05 06:12:29;;;;;;;9.33;6.03;;;28.70;1.00;;;;;;5090216;28;20483;-59
2022/08/05 06:14:55;;;;;;;6.83;6.17;;;28.90;1.00;;;;;;5090227;28;20453;-58
2022/08/05 06:17:21;;;;;;;7.77;6.67;;;29.00;1.00;;;;;;5089944;28;20444;-59
2022/08/05 06:19:46;;;;;;;7.17;6.43;;;29.20;1.00;;;;;;5091996;28;20189;-59
2022/08/05 06:22:22;;;;;;;7.47;6.77;;;29.30;1.00;;;;;;5091837;28;20191;-59
2022/08/05 06:24:47;;;;;;;7.33;6.30;;;29.00;1.00;;;;;;5090734;28;20198;-58
2022/08/05 06:27:13;;;;;;;8.37;7.00;;;29.00;1.00;;;;;;5072817;28;20530;-58
2022/08/05 06:29:38;;;;;;;7.33;6.63;;;28.90;1.00;;;;;;5090939;28;20233;-59
2022/08/05 06:32:04;;;;;;;7.17;6.57;;;28.90;1.00;;;;;;5090192;28;20191;-59
2022/08/05 06:34:30;;;;;;;7.03;6.33;;;29.10;1.00;;;;;;5091161;28;20290;-59
2022/08/05 06:36:55;;;;;;;8.23;7.03;;;29.10;1.00;;;;;;5089172;28;20280;-58
2022/08/05 06:39:21;;;;;;;8.67;6.60;;;29.10;1.00;;;;;;5089242;28;20187;-58
2022/08/05 06:41:48;;;;;;;6.90;6.30;;;29.30;1.00;;;;;;5091273;28;20186;-59
2022/08/05 06:44:14;;;;;;;7.33;5.77;;;29.30;1.00;;;;;;5089556;28;20199;-60
2022/08/05 06:46:39;;;;;;;7.13;4.90;;;29.20;1.00;;;;;;5089539;28;20469;-59
2022/08/05 06:49:05;;;;;;;7.67;6.87;;;29.30;1.00;;;;;;5090806;28;20275;-60
2022/08/05 06:51:32;;;;;;;6.00;4.83;;;29.30;1.00;;;;;;5088680;28;20184;-58
2022/08/05 06:53:59;;;;;;;9.57;5.60;;;29.40;1.00;;;;;;5090196;28;20187;-60
2022/08/05 06:56:26;;;;;;;5.27;4.77;;;29.80;1.00;;;;;;5090536;28;20450;-59
2022/08/05 06:58:52;;;;;;;7.70;5.00;;;29.90;1.00;;;;;;5090219;28;20448;-59
2022/08/05 07:01:17;;;;;;;5.80;4.50;;;29.70;1.00;;;;;;5089001;28;20468;-59
2022/08/05 07:03:43;;;;;;;5.37;4.97;;;29.70;1.00;;;;;;5090957;28;20195;-59
2022/08/05 07:06:09;;;;;;;6.00;5.37;;;29.50;1.00;;;;;;5091554;28;20210;-59
2022/08/05 07:08:34;;;;;;;7.27;4.90;;;29.50;1.00;;;;;;5089465;28;20229;-59
2022/08/05 07:11:00;;;;;;;6.37;5.87;;;29.40;1.00;;;;;;5090419;28;20184;-60
2022/08/05 07:18:53;;;;;;;5.83;5.30;;;29.40;1.00;;;;;;5090478;28;20452;-57
2022/08/05 07:21:19;;;;;;;11.97;5.30;;;29.40;1.00;;;;;;5087416;28;20461;-57
2022/08/05 07:23:45;;;;;;;7.33;5.70;;;29.30;1.00;;;;;;5089478;28;20555;-59
2022/08/05 07:26:10;;;;;;;7.60;5.30;;;29.30;1.00;;;;;;5090580;28;20283;-58
2022/08/05 07:28:36;;;;;;;6.70;6.00;;;29.00;1.00;;;;;;5089708;28;20190;-58
2022/08/05 07:31:01;;;;;;;12.47;6.70;;;28.80;1.00;;;;;;5089600;28;20631;-59
2022/08/05 07:33:27;;;;;;;8.07;6.50;;;29.00;1.00;;;;;;5089877;28;20258;-58
2022/08/05 07:35:53;;;;;;;8.03;7.07;;;29.00;1.00;;;;;;5089507;28;20218;-59
2022/08/05 07:38:18;;;;;;;8.13;6.50;;;28.80;1.00;;;;;;5089500;28;20647;-58
2022/08/05 07:40:44;;;;;;;7.60;6.80;;;28.50;1.00;;;;;;5088886;28;20201;-58
2022/08/05 07:43:12;;;;;;;10.07;7.53;;;28.40;1.00;;;;;;5089344;28;20738;-58
2022/08/05 07:45:39;;;;;;;7.33;6.63;;;28.30;1.00;;;;;;5070086;28;20950;-58
2022/08/05 07:48:05;;;;;;;13.40;6.97;;;28.40;1.00;;;;;;5089690;28;21115;-59
2022/08/05 07:50:31;;;;;;;8.97;6.40;;;28.40;1.00;;;;;;5087734;28;20444;-59
2022/08/05 07:52:56;;;;;;;7.37;6.73;;;28.30;1.00;;;;;;5089382;28;20184;-57
2022/08/05 07:55:22;;;;;;;15.03;7.10;;;28.60;1.00;;;;;;5090518;28;20612;-59
2022/08/05 07:57:47;;;;;;;8.07;7.37;;;28.70;1.00;;;;;;5070942;28;20649;-56
2022/08/05 08:00:13;;;;;;;8.60;7.23;;;29.00;1.00;;;;;;5089310;28;20624;-57
2022/08/05 08:02:40;;;;;;;9.00;7.10;;;29.00;1.00;;;;;;5089226;28;20516;-58
2022/08/05 08:05:06;;;;;;;8.03;7.23;;;29.00;1.00;;;;;;5089081;28;20511;-58
2022/08/05 08:07:31;;;;;;;7.37;6.87;;;29.40;1.00;;;;;;5087887;28;20480;-57
2022/08/05 08:09:57;;;;;;;7.73;6.50;;;29.70;1.00;;;;;;5089015;28;20806;-57
2022/08/05 08:12:23;;;;;;;8.90;6.77;;;29.60;1.00;;;;;;5088781;28;20668;-58
2022/08/05 08:14:49;;;;;;;19.43;8.40;;;29.70;1.00;;;;;;5089840;28;20214;-59
2022/08/05 08:17:14;;;;;;;7.47;6.80;;;29.50;1.00;;;;;;5088640;28;20441;-58
2022/08/05 08:19:40;;;;;;;7.10;6.43;;;29.20;1.00;;;;;;5088634;28;20229;-58
2022/08/05 08:22:07;;;;;;;11.03;6.27;;;29.20;1.00;;;;;;5087238;28;20282;-57
2022/08/05 08:24:34;;;;;;;8.80;6.80;;;29.30;1.00;;;;;;5088825;28;20437;-58
2022/08/05 08:27:00;;;;;;;11.53;7.00;;;29.30;1.00;;;;;;5088530;28;20923;-62
2022/08/05 08:29:26;;;;;;;11.40;6.83;;;29.20;1.00;;;;;;5089106;28;20517;-58
2022/08/05 08:31:52;;;;;;;9.80;6.90;;;29.60;1.00;;;;;;5089679;28;20445;-58
2022/08/05 08:34:20;;;;;;;7.63;6.70;;;29.40;1.00;;;;;;5088231;28;20182;-58
2022/08/05 08:36:45;;;;;;;7.93;6.50;;;29.40;1.00;;;;;;5088379;28;20261;-59
2022/08/05 08:39:11;;;;;;;6.60;6.10;;;29.40;1.00;;;;;;5087811;28;20472;-58
2022/08/05 08:41:40;;;;;;;6.80;6.27;;;29.50;1.00;;;;;;5089597;28;20726;-58
2022/08/05 08:44:11;;;;;;;6.83;6.23;;;29.70;1.00;;;;;;5089622;28;20192;-58
2022/08/05 08:46:37;;;;;;;7.87;5.90;;;29.50;1.00;;;;;;5089852;28;20464;-58
2022/08/05 08:49:03;;;;;;;9.77;6.80;;;29.30;1.00;;;;;;5090004;28;21095;-58
2022/08/05 08:51:32;;;;;;;7.77;6.30;;;29.00;1.00;;;;;;5089679;28;20425;-58
2022/08/05 08:53:59;;;;;;;9.37;6.53;;;28.90;1.00;;;;;;5070558;28;20441;-58
2022/08/05 08:56:25;;;;;;;9.70;7.17;;;28.70;1.00;;;;;;5088919;28;20540;-58
2022/08/05 08:58:51;;;;;;;6.30;5.80;;;28.70;1.00;;;;;;5089867;28;21189;-58
2022/08/05 09:01:18;;;;;;;7.47;6.13;;;28.90;1.00;;;;;;5088229;28;20464;-58
2022/08/05 09:03:49;;;;;;;7.70;6.93;;;29.30;1.00;;;;;;5088498;28;20471;-59
2022/08/05 09:06:15;;;;;;;6.50;5.83;;;29.20;1.00;;;;;;5088822;28;20591;-59
2022/08/05 09:08:41;;;;;;;8.17;6.90;;;29.40;1.00;;;;;;5090115;28;20531;-58
2022/08/05 09:11:08;;;;;;;9.17;6.20;;;29.60;1.00;;;;;;5075472;28;20544;-59
2022/08/05 09:13:35;;;;;;;14.00;10.33;;;29.80;1.00;;;;;;5093415;28;20253;-59
2022/08/05 09:16:01;;;;;;;9.27;7.60;;;30.20;1.00;;;;;;5093657;28;20433;-57
2022/08/05 09:18:27;;;;;;;6.70;5.87;;;30.10;1.00;;;;;;5093663;28;20433;-58
2022/08/05 09:20:53;;;;;;;8.70;6.30;;;30.40;1.00;;;;;;5093090;28;20448;-58
2022/08/05 09:23:20;;;;;;;7.07;5.67;;;30.80;1.00;;;;;;5090508;28;20455;-58
2022/08/05 09:25:50;;;;;;;6.63;6.03;;;31.00;1.00;;;;;;5090858;28;20935;-58
2022/08/05 09:28:22;;;;;;;8.67;6.00;;;30.70;1.00;;;;;;5092997;28;20440;-58
2022/08/05 09:30:54;;;;;;;8.30;5.97;;;30.80;1.00;;;;;;5092066;28;20772;-58
2022/08/05 09:33:21;;;;;;;7.87;5.37;;;30.60;1.00;;;;;;5092423;28;20437;-59
2022/08/05 09:36:05;;;;;;;7.53;6.40;;;30.70;1.00;;;;;;5091868;28;20461;-59
2022/08/05 09:38:31;;;;;;;8.97;8.17;;;30.70;1.00;;;;;;5087709;28;20516;-58
2022/08/05 09:41:11;;;;;;;7.07;6.30;;;30.50;1.00;;;;;;5091375;28;20479;-58
2022/08/05 09:43:38;;;;;;;9.20;5.60;;;30.50;1.00;;;;;;5091889;28;20477;-58
2022/08/05 09:46:21;;;;;;;7.87;7.17;;;30.50;1.00;;;;;;5092137;28;20475;-58
2022/08/05 09:48:47;;;;;;;9.07;7.53;;;30.40;1.00;;;;;;5091384;28;20532;-59
2022/08/05 09:51:12;;;;;;;11.27;6.57;;;30.50;1.00;;;;;;5092888;28;20508;-59
2022/08/05 09:53:50;;;;;;;9.90;6.63;;;30.80;1.00;;;;;;5092232;28;20179;-58
2022/08/05 09:56:32;;;;;;;9.53;6.57;;;30.70;1.00;;;;;;5091532;28;20720;-58
2022/08/05 09:59:00;;;;;;;9.20;6.27;;;30.50;1.00;;;;;;5092197;28;20477;-59
2022/08/05 10:01:26;;;;;;;6.77;6.13;;;30.40;1.00;;;;;;5092681;28;20465;-59
2022/08/05 10:04:07;;;;;;;6.97;6.27;;;30.40;1.00;;;;;;5090568;28;20458;-58
2022/08/05 10:06:33;;;;;;;10.43;6.00;;;30.80;1.00;;;;;;5092317;28;20464;-58
2022/08/05 10:09:12;;;;;;;9.70;6.10;;;31.10;1.00;;;;;;5092327;28;20426;-58
2022/08/05 10:11:38;;;;;;;7.40;6.60;;;31.20;1.00;;;;;;5092132;28;20578;-58
2022/08/05 10:14:24;;;;;;;7.30;6.60;;;31.00;1.00;;;;;;5092282;28;20520;-58
2022/08/05 10:16:51;;;;;;;7.57;6.97;;;31.00;1.00;;;;;;5092200;28;20779;-58
2022/08/05 10:19:17;;;;;;;8.13;7.13;;;30.80;1.00;;;;;;5090224;28;20463;-58
2022/08/05 10:21:44;;;;;;;9.80;6.40;;;30.80;1.00;;;;;;5090875;28;21208;-59
2022/08/05 10:24:14;;;;;;;11.80;6.60;;;31.20;1.00;;;;;;5088359;28;20274;-59
2022/08/05 10:26:43;;;;;;;7.10;6.50;;;31.50;1.00;;;;;;5090281;28;20457;-58
2022/08/05 10:29:09;;;;;;;6.80;6.30;;;31.30;1.00;;;;;;5087658;28;20533;-58
2022/08/05 10:31:37;;;;;;;11.60;6.70;;;31.20;1.00;;;;;;5091559;28;20437;-59
2022/08/05 10:34:03;;;;;;;7.33;6.70;;;31.30;1.00;;;;;;5092123;28;20695;-59
2022/08/05 10:36:29;;;;;;;7.53;6.80;;;31.50;1.00;;;;;;5091798;28;20544;-59
2022/08/05 10:39:01;;;;;;;10.10;9.07;;;31.60;1.00;;;;;;5092009;28;20184;-57
2022/08/05 10:41:35;;;;;;;9.50;7.10;;;31.70;1.00;;;;;;5091375;28;20449;-58
2022/08/05 10:44:11;;;;;;;7.63;6.93;;;31.50;1.00;;;;;;5092244;28;20429;-58
2022/08/05 10:46:44;;;;;;;10.07;7.20;;;31.50;1.00;;;;;;5091893;28;20527;-58
2022/08/05 10:49:10;;;;;;;8.03;7.40;;;31.50;1.00;;;;;;5091663;28;20437;-58
2022/08/05 10:51:46;;;;;;;9.73;7.47;;;31.30;1.00;;;;;;5091784;28;20422;-58
2022/08/05 10:54:13;;;;;;;8.10;7.40;;;31.30;1.00;;;;;;5091674;28;20190;-57
2022/08/05 10:56:50;;;;;;;8.73;7.40;;;31.70;1.00;;;;;;5091572;28;20464;-58
2022/08/05 10:59:26;;;;;;;9.40;7.53;;;31.90;1.00;;;;;;5091344;28;20944;-58
2022/08/05 11:02:11;;;;;;;7.77;7.07;;;32.20;1.00;;;;;;5091627;28;20437;-59
2022/08/05 11:04:44;;;;;;;10.37;7.10;;;32.60;1.00;;;;;;5091702;28;20512;-58
2022/08/05 11:07:14;;;;;;;7.73;7.13;;;32.60;1.00;;;;;;5091589;28;20476;-58
2022/08/05 11:09:45;;;;;;;7.50;6.90;;;32.40;1.00;;;;;;5091200;28;20519;-58
2022/08/05 11:12:23;;;;;;;6.90;6.40;;;32.30;1.00;;;;;;5087554;28;20436;-59
2022/08/05 11:15:29;;;;;;;9.23;8.23;;;32.20;1.00;;;;;;5091081;28;20870;-58
2022/08/05 11:18:07;;;;;;;6.87;6.37;;;32.30;1.00;;;;;;5088813;28;20934;-59
2022/08/05 11:20:36;;;;;;;8.27;7.47;;;32.80;1.00;;;;;;5089727;28;20475;-58
2022/08/05 11:23:30;;;;;;;8.90;6.90;;;33.30;1.00;;;;;;5090669;28;20442;-58
2022/08/05 11:26:20;;;;;;;8.03;7.40;;;32.90;1.00;;;;;;5089423;28;20463;-59
2022/08/05 11:28:53;;;;;;;6.77;6.10;;;32.80;1.00;;;;;;5080616;28;20441;-58
2022/08/05 11:31:21;;;;;;;8.33;7.00;;;32.80;1.00;;;;;;5089228;28;20828;-59
2022/08/05 11:33:47;;;;;;;6.80;6.30;;;33.10;1.00;;;;;;5090706;28;20440;-58
2022/08/05 11:36:17;;;;;;;8.30;7.60;;;32.80;1.00;;;;;;5089660;28;20476;-57
2022/08/05 11:38:43;;;;;;;7.00;6.40;;;33.00;1.00;;;;;;5089709;28;20673;-58
2022/08/05 11:41:16;;;;;;;7.00;5.83;;;33.00;1.00;;;;;;5088290;28;21730;-59
2022/08/05 11:43:57;;;;;;;7.40;6.47;;;33.10;1.00;;;;;;5090678;28;20714;-58
2022/08/05 11:46:31;;;;;;;6.50;6.00;;;33.30;1.00;;;;;;5090765;28;20464;-57
2022/08/05 11:48:58;;;;;;;6.97;6.37;;;33.30;1.00;;;;;;5090179;28;20794;-58
2022/08/05 11:51:25;;;;;;;7.17;6.57;;;33.40;1.00;;;;;;5090680;28;20442;-60
2022/08/05 11:53:52;;;;;;;6.70;6.10;;;33.60;1.00;;;;;;5090657;28;20442;-57
2022/08/05 11:56:19;;;;;;;7.70;5.77;;;33.90;1.00;;;;;;5090603;28;20980;-58
2022/08/05 11:58:46;;;;;;;6.73;6.20;;;33.90;1.00;;;;;;5090270;28;20444;-58
2022/08/05 12:01:18;;;;;;;6.80;6.30;;;34.00;1.00;;;;;;5090435;28;20507;-58
2022/08/05 12:03:54;;;;;;;6.07;5.67;;;34.10;1.00;;;;;;5090715;28;20964;-58
2022/08/05 12:06:25;;;;;;;6.87;6.37;;;34.30;1.00;;;;;;5090414;28;20473;-58
2022/08/05 12:08:57;;;;;;;6.03;5.50;;;34.40;1.00;;;;;;5090474;28;20435;-57
2022/08/05 12:11:28;;;;;;;6.30;5.80;;;34.30;1.00;;;;;;5089924;28;20790;-58
2022/08/05 12:13:58;;;;;;;6.80;6.10;;;34.10;1.00;;;;;;5090385;28;20434;-57
2022/08/05 12:16:26;;;;;;;6.57;5.97;;;34.10;1.00;;;;;;5090054;28;20540;-58
2022/08/05 12:18:53;;;;;;;6.13;5.53;;;34.30;1.00;;;;;;5090236;28;20440;-58
2022/08/05 12:21:25;;;;;;;6.03;5.40;;;34.70;1.00;;;;;;5090519;28;20821;-58
2022/08/05 12:24:01;;;;;;;6.67;6.00;;;34.80;1.00;;;;;;5090468;28;20425;-58
2022/08/05 12:26:35;;;;;;;5.27;4.87;;;34.50;1.00;;;;;;5089446;28;20462;-59
2022/08/05 12:29:05;;;;;;;7.03;4.60;;;34.80;1.00;;;;;;5090248;28;20521;-58
2022/08/05 12:31:34;;;;;;;5.30;4.90;;;35.20;1.00;;;;;;5090331;28;20795;-58
2022/08/05 12:34:05;;;;;;;5.23;4.83;;;35.00;1.00;;;;;;5090162;28;20438;-57
2022/08/05 12:36:31;;;;;;;4.70;4.30;;;35.20;1.00;;;;;;5089879;28;20552;-58
2022/08/05 12:38:58;;;;;;;5.10;4.70;;;35.20;1.00;;;;;;5090351;28;20433;-59
2022/08/05 12:41:30;;;;;;;10.03;4.53;;;35.20;1.00;;;;;;5090316;28;20556;-59
2022/08/05 12:43:57;;;;;;;11.63;4.77;;;35.40;1.00;;;;;;5094274;28;20818;-58
2022/08/05 12:46:28;;;;;;;5.50;4.43;;;35.50;1.00;;;;;;5075610;28;20577;-58
2022/08/05 12:49:10;;;;;;;8.80;4.63;;;35.20;1.00;;;;;;5094378;28;20456;-58
2022/08/05 12:51:57;;;;;;;4.73;4.33;;;35.50;1.00;;;;;;5075685;28;20444;-59
2022/08/05 12:54:30;;;;;;;6.13;4.80;;;35.70;1.00;;;;;;5093488;28;20490;-59
2022/08/05 12:57:02;;;;;;;5.50;4.30;;;36.00;1.00;;;;;;5094223;28;20466;-58
2022/08/05 12:59:42;;;;;;;6.40;4.70;;;35.90;1.00;;;;;;5094033;28;20534;-59
2022/08/05 13:02:10;;;;;;;5.50;4.47;;;35.40;1.00;;;;;;5093956;28;20445;-58
2022/08/05 13:04:38;;;;;;;5.50;4.97;;;35.00;1.00;;;;;;5093972;28;20485;-58
2022/08/05 13:07:11;;;;;;;6.20;4.80;;;34.90;1.00;;;;;;5093313;28;20466;-60
2022/08/05 13:09:38;;;;;;;5.00;4.60;;;35.20;1.00;;;;;;5093612;28;20449;-58